KR-0336 weather

Pale de Cz Hotel Heliports
Haeundae (Busan), Busan Gwang'yeogsi, South Korea

Public forecast

Using degrees Celsius for public forecast. Weather courtesy of forecast.io.

METAR (pilot weather report)

Closest report is Gimhae International Airport, 11.3 nm (20.9 km) W. Retrieved 2019/07/16 15:00 UTC (24 minutes ago):

RKPK 161500Z 04007KT 9999 FEW030 FEW200 23/18 Q1012

TAF (pilot weather forecast)

Closest forecast is Gimhae International Airport, 11.3 nm (20.9 km) W. Retrieved 2019/07/16 12:00 UTC (3 hours ago):

TAF RKPK 161100Z 1612/1718 06006KT 9999 SCT040 BKN200 TN21/1620Z TX29/1705Z BECMG 1614/1615 33006KT BECMG 1702/1703 18008KT BECMG 1711/1712 12006KT CAVOK BECMG 1715/1716 12008KT 4800 -RA BR BKN030 OVC100